메인 페이지
METAR-TAF:

METAR-TAF

공항 :

산투스 두몬트 공항

리우데자네이루, 리우데자네이루, 브라질

위도: 22-54S, 경도: 043-10W, 고도: 3m

현재 날씨관측

예보는 1 시간 31분 전, 01:00시(UTC)에 발표되었습니다.
북서4kt
온도 28°C
습도 84%
기압 1007 hPa
시정 10km 이상
1500m 미만 상공 구름 및 적란운 없음

METAR: SBRJ 030100Z 31004KT CAVOK 28/25 Q1007

시각: 23:31 (02:31 UTC)

예보

예보는 5 시간 31분 전, 21:00시(UTC)에 발표되었습니다.
예보 대상 시간: 03일 00시부터 03일 12시까지 (UTC)
북북서5kt
시정 10km 이상
고도 2000ft 상공 구름 보통
전환 중
03일 08시부터 03일 10시까지 (UTC)
서북서10kt

TAF: SBRJ 022100Z 0300/0312 33005KT 9999 SCT020 TN23/0309Z TX26/0312Z BECMG 0308/0310 30010KT RMK PGU

4,000개 이상의 공항 관측 자료 및 예보 (METAR 및 TAF 보고).

지도상에서 검색 가능한 기상관측소가 노란 점과 빨간 점으로 표시되어 있습니다.

기상관측소 명을 보려면 표시 위로 마우스를 이동하세요.

날씨 관측과 예보를 보려면 클릭하세요.

지도 변경 : 확대하려면 엑스 표시가 있는 녹색 버튼, 축소하려면 빼기 표시가 있는 녹색 버튼, 다음 페이지의 지도를 보려면 녹색 화살표를 클릭하세요.


METAR-TAF: